createdAt,value
2023-04-21T00:01:42.996Z,99291.56
2023-04-21T00:07:44.904Z,99278.38
2023-04-21T00:13:46.868Z,99270.16
2023-04-21T00:19:48.775Z,99261.25
2023-04-21T00:25:53.738Z,99261.69
2023-04-21T00:31:55.758Z,99244.31
2023-04-21T00:37:57.850Z,99254.25
2023-04-21T00:44:04.091Z,99252.38
2023-04-21T00:50:06.533Z,99241.84
2023-04-21T00:56:09.076Z,99247.81
2023-04-21T01:02:11.288Z,99237.06
2023-04-21T01:08:14.144Z,99236.66
2023-04-21T01:14:16.021Z,99232.88
2023-04-21T01:20:17.932Z,99233.13
2023-04-21T01:26:21.719Z,99230.19
2023-04-21T01:32:27.854Z,99234.91
2023-04-21T01:38:29.992Z,99222.75
2023-04-21T01:44:32.285Z,99232.13
2023-04-21T01:50:34.294Z,99231.00
2023-04-21T01:56:36.211Z,99232.41
2023-04-21T02:02:38.261Z,99227.41
2023-04-21T02:08:40.325Z,99225.91
2023-04-21T02:14:42.284Z,99221.50
2023-04-21T02:20:44.571Z,99222.41
2023-04-21T02:26:46.470Z,99216.97
2023-04-21T02:32:48.382Z,99228.25
2023-04-21T02:38:51.139Z,99230.78
2023-04-21T02:44:53.077Z,99228.47
2023-04-21T02:50:54.949Z,99239.13
2023-04-21T02:56:56.971Z,99226.25
2023-04-21T03:02:59.339Z,99235.47
2023-04-21T03:09:01.416Z,99232.94
2023-04-21T03:15:04.137Z,99235.09
2023-04-21T03:21:06.174Z,99232.97
2023-04-21T03:27:09.830Z,99235.34
2023-04-21T03:33:12.858Z,99229.41
2023-04-21T03:39:19.987Z,99223.66
2023-04-21T03:45:23.817Z,99221.34
2023-04-21T03:51:27.078Z,99222.59
2023-04-21T03:57:28.981Z,99223.16
2023-04-21T04:03:31.092Z,99224.31
2023-04-21T04:09:33.356Z,99219.91
2023-04-21T04:15:35.287Z,99219.25
2023-04-21T04:21:37.643Z,99224.13
2023-04-21T04:27:39.566Z,99218.69
2023-04-21T04:33:42.705Z,99210.13
2023-04-21T04:39:44.604Z,99212.56
2023-04-21T04:45:46.489Z,99214.94
2023-04-21T04:51:48.447Z,99214.06
2023-04-21T04:57:50.406Z,99224.22
2023-04-21T05:03:52.381Z,99224.38
2023-04-21T05:09:54.600Z,99227.75
2023-04-21T05:16:03.706Z,99235.38
2023-04-21T05:22:08.652Z,99230.03
2023-04-21T05:28:10.542Z,99240.44
2023-04-21T05:34:12.437Z,99240.56
2023-04-21T05:40:14.398Z,99244.34
2023-04-21T05:46:16.361Z,99250.81
2023-04-21T05:52:18.272Z,99248.88
2023-04-21T05:58:20.170Z,99249.63
2023-04-21T06:04:22.292Z,99246.34
2023-04-21T06:10:24.724Z,99246.78
2023-04-21T06:16:27.179Z,99246.56
2023-04-21T06:22:29.206Z,99236.03
2023-04-21T06:28:36.272Z,99241.47
2023-04-21T06:34:39.380Z,99235.25
2023-04-21T06:40:41.436Z,99228.47
2023-04-21T06:46:43.481Z,99230.34
2023-04-21T06:52:45.389Z,99232.00
2023-04-21T06:58:47.275Z,99226.84
2023-04-21T07:04:49.307Z,99231.28
2023-04-21T07:10:51.488Z,99211.41
2023-04-21T07:16:54.990Z,99212.53
2023-04-21T07:22:56.964Z,99221.28
2023-04-21T07:28:58.851Z,99221.19
2023-04-21T07:35:02.091Z,99216.41
2023-04-21T07:41:04.960Z,99216.03
2023-04-21T07:47:06.906Z,99218.69
2023-04-21T07:53:08.825Z,99219.69
2023-04-21T07:59:10.982Z,99211.06
2023-04-21T08:05:13.203Z,99206.34
2023-04-21T08:11:15.338Z,99206.75
2023-04-21T08:17:17.706Z,99203.50
2023-04-21T08:23:20.041Z,99211.31
2023-04-21T08:29:21.988Z,99202.88
2023-04-21T08:35:24.518Z,99201.63
2023-04-21T08:41:27.195Z,99194.03
2023-04-21T08:47:29.810Z,99198.63
2023-04-21T08:53:31.868Z,99203.31
2023-04-21T08:59:33.786Z,99188.88
2023-04-21T09:05:40.653Z,99193.16
2023-04-21T09:11:44.982Z,99195.06
2023-04-21T09:17:46.996Z,99190.94
2023-04-21T09:23:52.095Z,99194.59
2023-04-21T09:29:54.117Z,99186.34
2023-04-21T09:35:56.045Z,99178.25
2023-04-21T09:41:59.019Z,99188.81
2023-04-21T09:48:02.436Z,99180.16
2023-04-21T09:54:29.158Z,99175.09
2023-04-21T10:00:32.440Z,99165.06
2023-04-21T10:06:34.762Z,99164.63
2023-04-21T10:12:36.706Z,99156.41
2023-04-21T10:18:46.156Z,99143.91
2023-04-21T10:24:48.282Z,99130.66
2023-04-21T10:30:50.244Z,99131.78
2023-04-21T10:36:54.800Z,99126.81
2023-04-21T10:42:56.892Z,99126.22
2023-04-21T10:49:13.311Z,99118.75
2023-04-21T10:55:17.027Z,99101.50
2023-04-21T11:01:19.234Z,99102.03
2023-04-21T11:07:25.115Z,99096.06
2023-04-21T11:13:34.816Z,99076.88
2023-04-21T11:19:38.850Z,99071.34
2023-04-21T11:25:40.937Z,99074.00
2023-04-21T11:31:47.935Z,99060.19
2023-04-21T11:37:54.261Z,99055.25
2023-04-21T11:43:56.201Z,99055.75
2023-04-21T11:50:01.511Z,99039.13
2023-04-21T11:56:03.457Z,99042.53
2023-04-21T12:02:05.454Z,99019.38
2023-04-21T12:08:16.118Z,99029.94
2023-04-21T12:14:26.926Z,99022.22
2023-04-21T12:20:30.215Z,99031.00
2023-04-21T12:26:32.428Z,99029.50
2023-04-21T12:32:34.410Z,99023.09
2023-04-21T12:38:36.463Z,99017.06
2023-04-21T12:44:40.189Z,99007.19
2023-04-21T12:50:42.099Z,98994.19
2023-04-21T12:56:44.224Z,98999.34
2023-04-21T13:02:46.697Z,98993.78
2023-04-21T13:08:48.811Z,98999.34
2023-04-21T13:14:50.805Z,99000.88
2023-04-21T13:20:52.711Z,99007.97
2023-04-21T13:26:54.665Z,99005.63
2023-04-21T13:32:56.623Z,98993.53
2023-04-21T13:39:00.692Z,99000.16
2023-04-21T13:45:03.268Z,98988.78
2023-04-21T13:51:05.504Z,98974.03
2023-04-21T13:57:07.535Z,98982.19
2023-04-21T14:03:11.360Z,98981.19
2023-04-21T14:09:13.511Z,98962.00
2023-04-21T14:15:15.489Z,98969.19
2023-04-21T14:21:17.385Z,98965.31
2023-04-21T14:27:19.415Z,98955.84
2023-04-21T14:33:21.370Z,98943.72
2023-04-21T14:39:23.769Z,98929.97
2023-04-21T14:45:25.861Z,98936.09
2023-04-21T14:51:28.152Z,98928.38
2023-04-21T14:57:30.086Z,98910.91
2023-04-21T15:03:32.121Z,98902.75
2023-04-21T15:09:35.969Z,98896.13
2023-04-21T15:15:38.239Z,98899.50
2023-04-21T15:21:40.853Z,98901.03
2023-04-21T15:27:42.810Z,98884.78
2023-04-21T15:33:44.735Z,98888.59
2023-04-21T15:39:46.763Z,98888.69
2023-04-21T15:45:48.722Z,98883.47
2023-04-21T15:51:50.810Z,98872.25
2023-04-21T15:57:52.736Z,98873.44
2023-04-21T16:03:54.788Z,98858.63
2023-04-21T16:09:56.981Z,98845.59
2023-04-21T16:15:59.164Z,98843.78
2023-04-21T16:22:03.247Z,98833.69
2023-04-21T16:28:06.577Z,98828.50
2023-04-21T16:34:08.542Z,98817.19
2023-04-21T16:40:11.479Z,98810.13
2023-04-21T16:46:13.838Z,98817.50
2023-04-21T16:52:15.850Z,98809.25
2023-04-21T16:58:17.874Z,98798.34
2023-04-21T17:04:19.811Z,98801.03
2023-04-21T17:10:22.043Z,98796.97
2023-04-21T17:16:24.134Z,98788.81
2023-04-21T17:22:26.202Z,98785.25
2023-04-21T17:28:28.142Z,98775.72
2023-04-21T17:34:31.460Z,98784.28
2023-04-21T17:40:33.502Z,98777.91
2023-04-21T17:46:36.896Z,98773.00
2023-04-21T17:52:39.921Z,98767.34
2023-04-21T17:58:42.398Z,98767.69
2023-04-21T18:04:44.802Z,98771.06
2023-04-21T18:10:47.156Z,98778.50
2023-04-21T18:16:49.025Z,98769.44
2023-04-21T18:22:51.887Z,98767.88
2023-04-21T18:28:58.068Z,98766.16
2023-04-21T18:35:00.823Z,98765.25
2023-04-21T18:41:02.869Z,98768.88
2023-04-21T18:47:04.905Z,98777.69
2023-04-21T18:53:08.530Z,98777.06
2023-04-21T18:59:10.501Z,98781.72
2023-04-21T19:05:12.374Z,98783.09
2023-04-21T19:11:17.732Z,98783.66
2023-04-21T19:17:19.748Z,98794.25
2023-04-21T19:23:26.662Z,98790.09
2023-04-21T19:29:28.788Z,98796.00
2023-04-21T19:35:30.818Z,98792.03
2023-04-21T19:41:32.762Z,98794.28
2023-04-21T19:47:37.914Z,98782.66
2023-04-21T19:53:39.835Z,98787.41
2023-04-21T19:59:41.763Z,98788.03
2023-04-21T20:05:45.601Z,98796.88
2023-04-21T20:11:47.609Z,98794.56
2023-04-21T20:17:49.962Z,98787.88
2023-04-21T20:23:51.897Z,98791.56
2023-04-21T20:29:53.796Z,98786.38
2023-04-21T20:35:56.938Z,98794.19
2023-04-21T20:42:12.634Z,98790.69
2023-04-21T20:48:15.741Z,98803.97
2023-04-21T20:54:17.664Z,98806.91
2023-04-21T21:00:19.826Z,98797.81
2023-04-21T21:06:21.766Z,98794.53
2023-04-21T21:12:23.755Z,98793.38
2023-04-21T21:18:25.780Z,98786.69
2023-04-21T21:24:28.821Z,98794.88
2023-04-21T21:30:30.771Z,98797.00
2023-04-21T21:36:33.226Z,98785.72
2023-04-21T21:42:35.354Z,98789.72
2023-04-21T21:48:37.337Z,98793.94
2023-04-21T21:54:39.251Z,98791.84
2023-04-21T22:00:42.466Z,98792.22
2023-04-21T22:06:45.411Z,98789.47
2023-04-21T22:12:47.327Z,98792.94
2023-04-21T22:18:49.402Z,98781.69
2023-04-21T22:24:51.422Z,98791.47
2023-04-21T22:30:53.385Z,98787.63
2023-04-21T22:36:55.567Z,98793.72
2023-04-21T22:42:57.941Z,98800.38
2023-04-21T22:49:02.431Z,98802.00
2023-04-21T22:55:05.305Z,98791.88
2023-04-21T23:01:07.439Z,98792.78
2023-04-21T23:07:09.702Z,98789.09
2023-04-21T23:13:11.586Z,98780.28
2023-04-21T23:19:13.480Z,98789.88
2023-04-21T23:25:15.590Z,98772.13
2023-04-21T23:31:17.642Z,98763.25
2023-04-21T23:37:19.634Z,98742.81
2023-04-21T23:43:21.650Z,98735.53
2023-04-21T23:49:23.604Z,98725.69
2023-04-21T23:55:25.979Z,98729.09
